Time;durP1;ratioP1;P1;durP2;ratioP2;P2;SDS_P1;SDS_P2;PMS_P1;PMS_P2;Temp;Humidity;BMP_temperature;BMP_pressure;BME280_temperature;BME280_humidity;BME280_pressure;Samples;Min_cycle;Max_cycle;Signal;HPM_P1;HPM_P2
2022/06/28 00:01:44;;;;;;;23.40;15.73;;;19.40;99.90;;;;;;4166857;28;20304;-78
2022/06/28 00:03:46;;;;;;;23.10;15.67;;;19.40;99.90;;;;;;4163551;28;20220;-77
2022/06/28 00:05:49;;;;;;;22.43;15.70;;;19.30;99.90;;;;;;4160391;28;20223;-79
2022/06/28 00:07:51;;;;;;;27.50;17.83;;;19.20;99.90;;;;;;4164931;28;20225;-77
2022/06/28 00:09:53;;;;;;;22.87;15.53;;;19.20;99.90;;;;;;4165945;28;20225;-77
2022/06/28 00:11:55;;;;;;;22.70;15.87;;;19.20;99.90;;;;;;4166064;28;20208;-78
2022/06/28 00:13:57;;;;;;;22.87;15.10;;;19.20;99.90;;;;;;4176530;28;20236;-77
2022/06/28 00:16:08;;;;;;;24.70;15.67;;;19.10;99.90;;;;;;4176694;28;20233;-77
2022/06/28 00:18:10;;;;;;;24.23;15.53;;;19.10;99.90;;;;;;4162836;28;20205;-78
2022/06/28 00:20:13;;;;;;;27.03;16.87;;;19.10;99.90;;;;;;4159121;28;20217;-78
2022/06/28 00:22:16;;;;;;;28.07;17.13;;;19.10;99.90;;;;;;4165444;28;20221;-77
2022/06/28 00:24:18;;;;;;;35.40;21.33;;;19.00;99.90;;;;;;4158997;28;20242;-77
2022/06/28 00:26:20;;;;;;;29.93;19.50;;;19.10;99.90;;;;;;4163093;28;20265;-77
2022/06/28 00:28:22;;;;;;;29.87;19.20;;;19.00;99.90;;;;;;4162843;28;20224;-77
2022/06/28 00:30:24;;;;;;;31.77;20.37;;;19.00;99.90;;;;;;4162980;28;20271;-78
2022/06/28 00:32:26;;;;;;;28.03;17.87;;;19.00;99.90;;;;;;4161700;28;20248;-78
2022/06/28 00:34:28;;;;;;;26.73;17.77;;;19.00;99.90;;;;;;4159692;28;20212;-78
2022/06/28 00:36:30;;;;;;;30.60;19.27;;;19.00;99.90;;;;;;4160895;28;20241;-78
2022/06/28 00:38:33;;;;;;;31.03;19.90;;;19.00;99.90;;;;;;4159485;28;20228;-77
2022/06/28 00:40:42;;;;;;;27.97;19.07;;;19.00;99.90;;;;;;4155874;28;20309;-77
2022/06/28 00:42:45;;;;;;;32.03;19.33;;;19.00;99.90;;;;;;4159211;28;20204;-77
2022/06/28 00:44:47;;;;;;;33.77;20.67;;;19.00;99.90;;;;;;4163138;28;20337;-78
2022/06/28 00:46:49;;;;;;;29.43;19.43;;;18.90;99.90;;;;;;4163790;28;20235;-79
2022/06/28 00:48:51;;;;;;;31.63;20.67;;;18.90;99.90;;;;;;4162204;28;20213;-80
2022/06/28 00:50:54;;;;;;;31.27;19.83;;;18.90;99.90;;;;;;4162568;28;20208;-79
2022/06/28 00:53:07;;;;;;;30.20;20.90;;;18.90;99.90;;;;;;4164102;28;20217;-77
2022/06/28 00:55:11;;;;;;;32.10;21.87;;;18.90;99.90;;;;;;4158705;28;20293;-80
2022/06/28 00:57:13;;;;;;;32.93;21.20;;;18.90;99.90;;;;;;4158641;28;20290;-78
2022/06/28 00:59:14;;;;;;;31.63;21.13;;;18.90;99.90;;;;;;4158211;28;20297;-76
2022/06/28 01:01:16;;;;;;;31.70;20.00;;;18.90;99.90;;;;;;4157469;28;20259;-78
2022/06/28 01:03:20;;;;;;;28.10;18.30;;;18.90;99.90;;;;;;4159743;28;20332;-78
2022/06/28 01:05:23;;;;;;;29.53;18.47;;;18.90;99.90;;;;;;4156854;28;20263;-77
2022/06/28 01:07:24;;;;;;;29.23;19.23;;;18.90;99.90;;;;;;4160959;28;20723;-77
2022/06/28 01:09:26;;;;;;;27.70;17.93;;;18.90;99.90;;;;;;4163079;28;20219;-77
2022/06/28 01:11:30;;;;;;;25.30;17.50;;;18.90;99.90;;;;;;4161292;28;20221;-78
2022/06/28 01:13:31;;;;;;;29.07;19.10;;;18.90;99.90;;;;;;4165038;28;20609;-78
2022/06/28 01:15:34;;;;;;;26.33;17.80;;;18.90;99.90;;;;;;4172707;28;20209;-78
2022/06/28 01:17:36;;;;;;;25.93;17.10;;;18.90;99.90;;;;;;4176563;28;20211;-80
2022/06/28 01:19:38;;;;;;;26.67;17.83;;;18.90;99.90;;;;;;4170956;28;20215;-79
2022/06/28 01:21:41;;;;;;;31.87;18.87;;;18.90;99.90;;;;;;4176129;28;20239;-77
2022/06/28 01:23:45;;;;;;;29.37;19.03;;;18.90;99.90;;;;;;4179353;28;20278;-79
2022/06/28 01:25:47;;;;;;;25.60;17.53;;;18.90;99.90;;;;;;4183638;28;20212;-76
2022/06/28 01:27:49;;;;;;;25.73;16.90;;;18.90;99.90;;;;;;4179377;22;20275;-80
2022/06/28 01:29:51;;;;;;;29.00;18.53;;;18.90;99.90;;;;;;4171630;28;20216;-79
2022/06/28 01:31:53;;;;;;;24.87;17.10;;;18.90;99.90;;;;;;4169095;28;20212;-80
2022/06/28 01:33:57;;;;;;;30.23;19.70;;;18.90;99.90;;;;;;4163786;28;20827;-79
2022/06/28 01:35:59;;;;;;;28.47;19.63;;;18.90;99.90;;;;;;4164050;28;20211;-79
2022/06/28 01:38:04;;;;;;;28.77;19.00;;;18.80;99.90;;;;;;4165561;28;20266;-79
2022/06/28 01:40:09;;;;;;;33.10;21.40;;;18.80;99.90;;;;;;4167333;28;20653;-80
2022/06/28 01:42:11;;;;;;;30.93;20.47;;;18.80;99.90;;;;;;4171660;28;20305;-80
2022/06/28 01:44:13;;;;;;;29.77;19.57;;;18.80;99.90;;;;;;4172036;28;20590;-80
2022/06/28 01:46:15;;;;;;;37.07;23.23;;;18.80;99.90;;;;;;4169098;28;20234;-80
2022/06/28 01:48:18;;;;;;;37.13;23.07;;;18.70;99.90;;;;;;4170571;28;20230;-80
2022/06/28 01:50:20;;;;;;;39.50;24.37;;;18.70;99.90;;;;;;4174830;28;20734;-80
2022/06/28 01:52:23;;;;;;;39.03;23.43;;;18.70;99.90;;;;;;4171028;28;20669;-80
2022/06/28 01:54:25;;;;;;;38.53;24.27;;;18.60;99.90;;;;;;4166672;28;20257;-80
2022/06/28 01:56:31;;;;;;;38.17;24.17;;;18.60;99.90;;;;;;4170710;28;20290;-80
2022/06/28 01:58:33;;;;;;;40.10;24.20;;;18.50;99.90;;;;;;4168321;28;20205;-80
2022/06/28 02:00:35;;;;;;;41.67;24.60;;;18.50;99.90;;;;;;4165012;28;20236;-81
2022/06/28 02:03:28;;;;;;;41.50;23.90;;;18.40;99.90;;;;;;4174189;28;20289;-80
2022/06/28 02:06:20;;;;;;;40.07;22.63;;;18.40;99.90;;;;;;4165799;28;20219;-80
2022/06/28 02:09:13;;;;;;;40.97;23.27;;;18.40;99.90;;;;;;4167717;28;20234;-81
2022/06/28 02:12:06;;;;;;;40.10;23.13;;;18.30;99.90;;;;;;4169198;28;20200;-81
2022/06/28 02:14:59;;;;;;;37.17;22.40;;;18.30;99.90;;;;;;4169909;28;20676;-80
2022/06/28 02:17:51;;;;;;;38.30;22.50;;;18.20;99.90;;;;;;4173082;28;20241;-80
2022/06/28 02:20:46;;;;;;;32.30;20.50;;;18.20;99.90;;;;;;4167171;28;20263;-81
2022/06/28 02:23:39;;;;;;;30.60;19.40;;;18.20;99.90;;;;;;4165860;28;20238;-81
2022/06/28 02:26:32;;;;;;;39.23;22.20;;;18.20;99.90;;;;;;4163668;28;20314;-80
2022/06/28 04:03:22;;;;;;;39.53;22.57;;;18.30;99.90;;;;;;4175011;28;20719;-82
2022/06/28 04:05:24;;;;;;;33.10;19.60;;;18.40;99.90;;;;;;4169385;28;20215;-82
2022/06/28 04:07:26;;;;;;;34.27;20.37;;;18.40;99.90;;;;;;4167455;28;20235;-81
2022/06/28 04:09:29;;;;;;;32.90;20.33;;;18.40;99.90;;;;;;4157159;28;20223;-82
2022/06/28 04:11:31;;;;;;;35.77;21.60;;;18.40;99.90;;;;;;4173487;28;20195;-82
2022/06/28 04:13:33;;;;;;;42.67;24.10;;;18.40;99.90;;;;;;4171637;28;20218;-82
2022/06/28 04:15:37;;;;;;;42.97;24.40;;;18.40;99.90;;;;;;4170520;28;20222;-82
2022/06/28 04:17:39;;;;;;;49.17;24.83;;;18.40;99.90;;;;;;4154391;28;20840;-82
2022/06/28 04:19:43;;;;;;;36.60;21.63;;;18.40;99.90;;;;;;4155460;28;20232;-82
2022/06/28 04:21:45;;;;;;;33.60;20.43;;;18.40;99.90;;;;;;4155643;28;20582;-81
2022/06/28 04:23:47;;;;;;;32.33;20.73;;;18.20;99.90;;;;;;4159125;28;20211;-83
2022/06/28 04:25:51;;;;;;;29.73;19.23;;;18.20;99.90;;;;;;4156295;28;20274;-82
2022/06/28 04:27:56;;;;;;;34.10;19.70;;;18.20;99.90;;;;;;4152926;28;20233;-82
2022/06/28 04:29:59;;;;;;;28.90;18.37;;;18.10;99.90;;;;;;4173237;28;20276;-81
2022/06/28 04:32:01;;;;;;;26.73;18.47;;;18.10;99.90;;;;;;4170167;28;20204;-81
2022/06/28 04:34:03;;;;;;;31.23;19.07;;;18.10;99.90;;;;;;4155648;28;20732;-80
2022/06/28 04:36:07;;;;;;;25.67;16.73;;;18.10;99.90;;;;;;4167604;28;20250;-82
2022/06/28 04:38:12;;;;;;;24.17;14.77;;;18.00;99.90;;;;;;4171015;28;20280;-85
2022/06/28 04:40:17;;;;;;;21.23;14.10;;;17.90;99.90;;;;;;4171436;28;20230;-81
2022/06/28 04:42:19;;;;;;;18.40;12.73;;;17.90;99.90;;;;;;4166725;28;20564;-80
2022/06/28 04:44:21;;;;;;;17.37;11.33;;;17.90;99.90;;;;;;4167736;28;20207;-79
2022/06/28 04:46:25;;;;;;;16.57;10.57;;;17.80;99.90;;;;;;4146280;28;20759;-80
2022/06/28 04:48:27;;;;;;;20.77;11.07;;;17.70;99.90;;;;;;4164032;28;20265;-79
2022/06/28 04:50:29;;;;;;;15.07;9.50;;;17.70;99.90;;;;;;4165157;28;20242;-79
2022/06/28 04:52:32;;;;;;;14.10;9.03;;;17.60;99.90;;;;;;4164653;28;20278;-78
2022/06/28 04:54:34;;;;;;;13.10;9.03;;;17.50;99.90;;;;;;4164266;28;20210;-79
2022/06/28 04:56:36;;;;;;;17.30;9.43;;;17.50;99.90;;;;;;4162789;28;20237;-79
2022/06/28 04:58:38;;;;;;;10.57;7.47;;;17.50;99.90;;;;;;4167076;28;20258;-79
2022/06/28 05:00:40;;;;;;;13.43;7.80;;;17.40;99.90;;;;;;4164414;28;20203;-79
2022/06/28 05:02:43;;;;;;;12.07;7.40;;;17.30;99.90;;;;;;4149816;28;20235;-79
2022/06/28 05:04:45;;;;;;;12.77;8.07;;;17.30;99.90;;;;;;4161170;28;20199;-78
2022/06/28 05:06:46;;;;;;;9.80;7.23;;;17.30;99.90;;;;;;4166987;28;20227;-79
2022/06/28 05:08:50;;;;;;;12.13;7.07;;;17.30;99.90;;;;;;4166005;28;20199;-80
2022/06/28 05:10:51;;;;;;;10.13;7.07;;;17.30;99.90;;;;;;4167868;28;20286;-82
2022/06/28 05:12:53;;;;;;;9.83;7.33;;;17.20;99.90;;;;;;4168446;28;20198;-78
2022/06/28 05:14:55;;;;;;;10.67;6.90;;;17.20;99.90;;;;;;4172025;28;20215;-79
2022/06/28 05:16:57;;;;;;;14.67;7.67;;;17.20;99.90;;;;;;4167103;28;20226;-79
2022/06/28 05:18:59;;;;;;;10.40;6.70;;;17.20;99.90;;;;;;4166967;28;20234;-79
2022/06/28 05:21:01;;;;;;;9.90;6.60;;;17.20;99.90;;;;;;4166860;28;20310;-79
2022/06/28 05:23:03;;;;;;;8.67;6.13;;;17.20;99.90;;;;;;4151898;28;20246;-79
2022/06/28 05:25:07;;;;;;;9.30;6.77;;;17.20;99.90;;;;;;4150268;28;20215;-79
2022/06/28 05:27:09;;;;;;;11.17;6.63;;;17.20;99.90;;;;;;4168896;28;20651;-79
2022/06/28 05:29:11;;;;;;;11.20;6.90;;;17.20;99.90;;;;;;4152092;28;20672;-79
2022/06/28 05:31:13;;;;;;;10.57;7.17;;;17.20;99.90;;;;;;4161420;28;20241;-79
2022/06/28 05:33:14;;;;;;;9.30;6.77;;;17.20;99.90;;;;;;4166041;28;20569;-79
2022/06/28 05:35:16;;;;;;;8.70;6.80;;;17.20;99.90;;;;;;4165727;28;20202;-79
2022/06/28 05:37:18;;;;;;;10.07;6.73;;;17.30;99.90;;;;;;4165379;28;20257;-79
2022/06/28 05:39:21;;;;;;;9.53;6.17;;;17.20;99.90;;;;;;4155290;28;20907;-79
2022/06/28 05:41:24;;;;;;;8.23;5.90;;;17.20;99.90;;;;;;4173845;28;20202;-79
2022/06/28 05:43:26;;;;;;;10.17;6.20;;;17.30;99.90;;;;;;4151968;28;20207;-79
2022/06/28 05:45:28;;;;;;;9.27;6.00;;;17.30;99.90;;;;;;4171497;28;20205;-79
2022/06/28 05:47:30;;;;;;;8.53;6.03;;;17.30;99.90;;;;;;4171862;28;20265;-79
2022/06/28 05:49:32;;;;;;;10.17;7.23;;;17.40;99.90;;;;;;4147395;28;20235;-79
2022/06/28 05:51:35;;;;;;;7.57;5.80;;;17.30;99.90;;;;;;4169813;28;20241;-79
2022/06/28 05:53:37;;;;;;;6.97;5.77;;;17.40;99.90;;;;;;4165034;28;20227;-79
2022/06/28 05:55:39;;;;;;;9.80;6.27;;;17.40;99.90;;;;;;4148385;28;20239;-78
2022/06/28 05:57:42;;;;;;;8.07;5.43;;;17.40;99.90;;;;;;4174234;28;20218;-78
2022/06/28 05:59:44;;;;;;;8.83;5.67;;;17.50;99.90;;;;;;4162786;28;20209;-78
2022/06/28 06:01:46;;;;;;;7.83;5.50;;;17.50;99.90;;;;;;4143016;28;20582;-78
2022/06/28 06:03:48;;;;;;;8.13;6.33;;;17.50;99.90;;;;;;4163658;28;20281;-78
2022/06/28 06:05:51;;;;;;;8.47;6.47;;;17.60;99.90;;;;;;4169082;28;20285;-78
2022/06/28 06:07:53;;;;;;;9.07;7.40;;;17.60;99.90;;;;;;4168699;28;20222;-78
2022/06/28 06:09:55;;;;;;;11.47;8.30;;;17.70;99.90;;;;;;4173675;28;20205;-78
2022/06/28 06:11:57;;;;;;;14.47;8.77;;;17.70;99.90;;;;;;4169000;28;20206;-78
2022/06/28 06:14:00;;;;;;;12.57;8.57;;;17.80;99.90;;;;;;4168655;28;20235;-78
2022/06/28 06:16:03;;;;;;;10.67;8.43;;;17.80;99.90;;;;;;4169610;28;20211;-78
2022/06/28 06:18:05;;;;;;;10.80;8.10;;;17.90;99.90;;;;;;4170014;28;20229;-78
2022/06/28 06:20:12;;;;;;;13.47;9.83;;;17.90;99.90;;;;;;4165154;28;20219;-78
2022/06/28 06:22:14;;;;;;;18.77;11.57;;;18.00;99.90;;;;;;4166007;28;20204;-78
2022/06/28 06:24:16;;;;;;;16.77;11.87;;;18.10;99.90;;;;;;4173840;28;20268;-78
2022/06/28 06:26:18;;;;;;;12.77;10.57;;;18.10;99.90;;;;;;4172344;28;20247;-78
2022/06/28 06:28:20;;;;;;;15.23;11.27;;;18.10;99.90;;;;;;4168901;28;20585;-78
2022/06/28 06:30:23;;;;;;;13.07;9.57;;;18.20;99.90;;;;;;4175796;28;20227;-78
2022/06/28 06:32:25;;;;;;;13.13;9.33;;;18.20;99.90;;;;;;4174738;28;20203;-78
2022/06/28 06:34:27;;;;;;;13.93;9.67;;;18.20;99.90;;;;;;4173441;28;20268;-78
2022/06/28 06:36:29;;;;;;;12.50;9.73;;;18.30;99.90;;;;;;4173194;28;20287;-78
2022/06/28 06:38:31;;;;;;;14.60;9.10;;;18.30;99.90;;;;;;4155627;28;20213;-78
2022/06/28 06:40:33;;;;;;;12.57;9.23;;;18.40;99.90;;;;;;4170274;28;20214;-78
2022/06/28 06:42:35;;;;;;;11.67;8.63;;;18.40;99.90;;;;;;4170263;28;20207;-78
2022/06/28 06:44:37;;;;;;;11.57;8.17;;;18.50;99.90;;;;;;4174987;28;20257;-78
2022/06/28 06:46:40;;;;;;;12.40;8.80;;;18.60;99.90;;;;;;4169050;28;20239;-78
2022/06/28 06:48:42;;;;;;;10.80;8.57;;;18.60;99.90;;;;;;4147276;28;20247;-78
2022/06/28 06:50:44;;;;;;;12.07;8.73;;;18.60;99.90;;;;;;4163055;28;20241;-78
2022/06/28 06:52:46;;;;;;;12.37;9.00;;;18.60;99.90;;;;;;4167125;28;20694;-78
2022/06/28 06:54:48;;;;;;;10.50;8.33;;;18.60;99.90;;;;;;4146538;28;20208;-78
2022/06/28 06:56:50;;;;;;;9.40;7.43;;;18.60;99.90;;;;;;4165716;28;20723;-78
2022/06/28 06:58:55;;;;;;;13.07;7.53;;;18.60;99.90;;;;;;4166969;28;20247;-78
2022/06/28 07:00:57;;;;;;;10.47;7.23;;;18.60;99.90;;;;;;4169256;28;20212;-78
2022/06/28 07:03:02;;;;;;;8.43;6.93;;;18.70;99.90;;;;;;4167066;28;20700;-78
2022/06/28 07:05:05;;;;;;;9.87;7.70;;;18.70;99.90;;;;;;4165735;28;20323;-78
2022/06/28 07:07:07;;;;;;;11.00;8.20;;;18.70;99.90;;;;;;4168568;28;20229;-78
2022/06/28 07:09:09;;;;;;;15.23;8.87;;;18.80;99.90;;;;;;4169025;28;20684;-78
2022/06/28 07:11:11;;;;;;;13.03;8.77;;;18.80;99.90;;;;;;4166637;28;20245;-78
2022/06/28 07:13:13;;;;;;;9.67;8.13;;;18.80;99.90;;;;;;4172143;28;20576;-78
2022/06/28 07:15:15;;;;;;;9.93;7.70;;;18.90;99.90;;;;;;4160516;28;20300;-78
2022/06/28 07:17:20;;;;;;;8.83;6.73;;;18.90;99.90;;;;;;4176004;28;20730;-78
2022/06/28 07:19:23;;;;;;;9.43;6.67;;;19.00;99.90;;;;;;4153930;28;20251;-78
2022/06/28 07:21:25;;;;;;;7.83;6.30;;;19.00;99.90;;;;;;4164563;28;20655;-79
2022/06/28 07:23:27;;;;;;;6.27;5.43;;;19.00;99.90;;;;;;4150546;28;20218;-79
2022/06/28 07:25:29;;;;;;;6.90;5.57;;;19.10;99.90;;;;;;4167598;28;20263;-78
2022/06/28 07:27:31;;;;;;;7.93;6.33;;;19.20;99.90;;;;;;4166937;28;20593;-79
2022/06/28 07:29:34;;;;;;;8.83;5.70;;;19.20;99.90;;;;;;4171601;28;20636;-79
2022/06/28 07:31:36;;;;;;;9.07;6.33;;;19.30;99.90;;;;;;4169753;28;20708;-78
2022/06/28 07:33:38;;;;;;;8.83;6.97;;;19.30;99.90;;;;;;4151430;28;20215;-78
2022/06/28 07:35:42;;;;;;;12.83;6.87;;;19.30;99.90;;;;;;4167662;28;20729;-78
2022/06/28 07:37:46;;;;;;;8.77;7.07;;;19.30;99.90;;;;;;4165673;28;20228;-78
2022/06/28 07:39:48;;;;;;;9.33;6.47;;;19.30;99.90;;;;;;4170200;28;20577;-78
2022/06/28 07:41:50;;;;;;;9.70;7.00;;;19.10;99.90;;;;;;4151191;28;20202;-78
2022/06/28 07:43:52;;;;;;;10.47;6.13;;;19.20;99.90;;;;;;4170196;28;20667;-78
2022/06/28 07:45:54;;;;;;;12.23;7.13;;;19.20;99.90;;;;;;4163198;28;20241;-78
2022/06/28 07:47:56;;;;;;;9.83;6.10;;;19.30;99.90;;;;;;4163886;28;20247;-78
2022/06/28 07:52:37;;;;;;;6.43;5.23;;;19.50;99.90;;;;;;4168369;28;20197;-78
2022/06/28 07:54:38;;;;;;;6.97;5.73;;;19.60;99.90;;;;;;4170240;28;20738;-78
2022/06/28 07:56:40;;;;;;;9.20;5.77;;;19.70;99.90;;;;;;4175206;28;20259;-78
2022/06/28 07:58:42;;;;;;;8.13;6.40;;;19.70;99.90;;;;;;4174010;28;20206;-78
2022/06/28 08:00:44;;;;;;;8.30;5.80;;;19.70;99.90;;;;;;4175168;28;20608;-78
2022/06/28 08:02:46;;;;;;;7.23;5.63;;;19.70;99.90;;;;;;4170888;28;20262;-78
2022/06/28 08:04:48;;;;;;;10.90;5.77;;;19.60;99.90;;;;;;4169838;28;20449;-78
2022/06/28 08:06:50;;;;;;;6.13;5.00;;;19.70;99.90;;;;;;4175373;28;20240;-78
2022/06/28 08:08:53;;;;;;;6.70;5.50;;;19.70;99.90;;;;;;4175589;28;20261;-78
2022/06/28 08:10:55;;;;;;;5.67;5.07;;;19.80;99.90;;;;;;4165188;28;20252;-78
2022/06/28 08:12:57;;;;;;;7.83;6.00;;;19.80;99.90;;;;;;4166072;28;20213;-78
2022/06/28 08:15:02;;;;;;;8.47;6.13;;;19.90;99.90;;;;;;4170739;28;20254;-78
2022/06/28 08:17:04;;;;;;;7.30;5.30;;;20.00;99.90;;;;;;4169881;28;20319;-78
2022/06/28 08:19:06;;;;;;;7.97;5.00;;;19.90;99.90;;;;;;4175810;28;20219;-78
2022/06/28 08:21:08;;;;;;;6.20;5.00;;;19.90;99.90;;;;;;4154583;28;20653;-78
2022/06/28 08:23:11;;;;;;;6.47;4.90;;;20.00;99.90;;;;;;4143565;28;20648;-78
2022/06/28 08:25:14;;;;;;;5.67;4.70;;;19.90;99.90;;;;;;4173243;28;20221;-78
2022/06/28 08:27:16;;;;;;;5.30;4.50;;;20.00;99.90;;;;;;4171383;28;20235;-78
2022/06/28 08:29:21;;;;;;;5.73;4.40;;;20.00;99.90;;;;;;4171145;28;20221;-77
2022/06/28 08:31:34;;;;;;;6.47;4.43;;;20.10;99.90;;;;;;4172760;28;20204;-78
2022/06/28 08:33:38;;;;;;;5.60;4.47;;;20.20;99.90;;;;;;4167537;28;20290;-78
2022/06/28 08:35:53;;;;;;;4.77;3.90;;;20.20;99.90;;;;;;4174721;28;20214;-78
2022/06/28 08:37:58;;;;;;;5.80;4.30;;;20.20;99.90;;;;;;4164430;28;20248;-77
2022/06/28 08:40:00;;;;;;;5.37;4.43;;;20.20;99.90;;;;;;4166178;28;20246;-78
2022/06/28 08:42:20;;;;;;;5.03;4.30;;;20.20;99.90;;;;;;4172598;28;20213;-78
2022/06/28 08:44:26;;;;;;;5.27;3.90;;;20.10;99.90;;;;;;4169895;28;20203;-78
2022/06/28 08:46:28;;;;;;;6.40;4.10;;;20.20;99.90;;;;;;4173572;28;20663;-78
2022/06/28 08:48:38;;;;;;;4.10;3.67;;;20.20;99.90;;;;;;4166045;28;20703;-78
2022/06/28 08:50:42;;;;;;;5.63;3.40;;;20.30;99.90;;;;;;4172700;28;20286;-78
2022/06/28 08:52:44;;;;;;;3.87;3.20;;;20.30;99.90;;;;;;4170883;28;20730;-77
2022/06/28 08:54:47;;;;;;;3.70;3.30;;;20.40;99.90;;;;;;4170908;28;20578;-77
2022/06/28 08:56:49;;;;;;;4.27;3.63;;;20.40;99.90;;;;;;4166444;28;20265;-77
2022/06/28 08:58:53;;;;;;;5.13;3.23;;;20.50;99.90;;;;;;4150290;28;20596;-78
2022/06/28 09:00:55;;;;;;;9.47;3.70;;;20.60;99.90;;;;;;4166839;28;20575;-78
2022/06/28 09:02:57;;;;;;;5.03;3.20;;;20.60;99.90;;;;;;4176614;28;20288;-77
2022/06/28 09:05:01;;;;;;;3.40;3.03;;;20.60;99.90;;;;;;4149697;28;20652;-78
2022/06/28 09:07:03;;;;;;;4.20;3.13;;;20.70;99.90;;;;;;4165554;28;20256;-78
2022/06/28 09:09:05;;;;;;;3.60;2.67;;;20.70;99.90;;;;;;4171002;28;20269;-78
2022/06/28 09:11:07;;;;;;;4.30;2.50;;;20.60;99.90;;;;;;4174159;28;20305;-77
2022/06/28 09:13:12;;;;;;;2.67;2.43;;;20.60;99.90;;;;;;4174166;28;20273;-77
2022/06/28 09:15:15;;;;;;;2.20;2.00;;;20.70;99.90;;;;;;4168327;28;20209;-78
2022/06/28 09:17:25;;;;;;;2.97;2.50;;;20.70;99.90;;;;;;4171071;28;20212;-77
2022/06/28 09:19:35;;;;;;;3.20;2.80;;;20.70;99.90;;;;;;4167534;28;20206;-78
2022/06/28 09:21:42;;;;;;;3.77;2.90;;;20.70;99.90;;;;;;4167419;28;20502;-78
2022/06/28 09:23:48;;;;;;;3.00;2.70;;;20.70;99.90;;;;;;4173094;28;20617;-77
2022/06/28 09:25:50;;;;;;;3.40;2.97;;;20.70;99.90;;;;;;4152763;28;20739;-78
2022/06/28 09:27:57;;;;;;;3.07;2.70;;;20.70;99.90;;;;;;4174147;28;20229;-78
2022/06/28 09:30:02;;;;;;;2.83;2.53;;;20.70;99.90;;;;;;4164499;28;20295;-77
2022/06/28 09:32:07;;;;;;;3.60;2.60;;;20.70;99.90;;;;;;4164731;28;20204;-75
2022/06/28 09:34:10;;;;;;;2.87;2.53;;;20.70;99.90;;;;;;4175863;28;20211;-75
2022/06/28 09:36:17;;;;;;;3.07;2.70;;;20.70;99.30;;;;;;4173746;28;20665;-77
2022/06/28 09:38:30;;;;;;;3.60;3.00;;;20.70;99.90;;;;;;4165340;28;20708;-77
2022/06/28 09:40:33;;;;;;;3.10;2.60;;;20.80;99.90;;;;;;4174729;28;20292;-77
2022/06/28 09:42:35;;;;;;;4.83;3.13;;;20.90;99.90;;;;;;4169704;28;20212;-77
2022/06/28 09:44:38;;;;;;;3.60;2.87;;;21.00;99.90;;;;;;4168634;28;20730;-77
2022/06/28 09:46:41;;;;;;;2.90;2.60;;;21.00;99.90;;;;;;4169627;28;20274;-77
2022/06/28 09:48:44;;;;;;;3.37;2.80;;;21.10;99.90;;;;;;4167642;28;20230;-77
2022/06/28 09:50:47;;;;;;;4.60;2.60;;;21.20;99.50;;;;;;4172551;28;20645;-77
2022/06/28 09:52:51;;;;;;;3.43;2.87;;;21.20;99.50;;;;;;4165423;28;20221;-77
2022/06/28 09:54:56;;;;;;;3.00;2.63;;;21.30;99.90;;;;;;4147649;28;20592;-77
2022/06/28 09:56:58;;;;;;;2.53;2.23;;;21.40;99.90;;;;;;4163793;28;20233;-77
2022/06/28 09:59:01;;;;;;;2.53;2.27;;;21.30;95.30;;;;;;4164734;28;20569;-77
2022/06/28 10:01:03;;;;;;;2.73;2.27;;;21.30;96.60;;;;;;4165512;28;20211;-78
2022/06/28 10:03:06;;;;;;;2.30;2.03;;;21.40;99.20;;;;;;4166101;28;20210;-77
2022/06/28 10:05:10;;;;;;;2.30;2.10;;;21.50;95.70;;;;;;4169614;28;20293;-77
2022/06/28 10:07:13;;;;;;;2.43;2.20;;;21.60;97.80;;;;;;4173447;28;20607;-77
2022/06/28 10:09:15;;;;;;;2.77;2.13;;;21.60;96.90;;;;;;4172272;28;20782;-77
2022/06/28 10:11:18;;;;;;;2.20;2.00;;;21.70;95.10;;;;;;4171985;28;20203;-77
2022/06/28 10:15:44;;;;;;;2.50;2.00;;;21.80;94.60;;;;;;4148383;28;20270;-77
2022/06/28 10:17:58;;;;;;;2.50;2.10;;;21.80;94.20;;;;;;4175023;28;20219;-77
2022/06/28 10:20:01;;;;;;;2.57;2.20;;;21.80;93.30;;;;;;4167616;28;20210;-77
2022/06/28 10:22:10;;;;;;;2.40;2.20;;;21.90;92.10;;;;;;4164768;28;20210;-77
2022/06/28 10:24:13;;;;;;;3.00;2.03;;;22.00;91.90;;;;;;4163798;28;20261;-77
2022/06/28 10:26:21;;;;;;;2.60;2.40;;;22.20;93.10;;;;;;4164748;28;20221;-77
2022/06/28 10:28:28;;;;;;;2.80;2.30;;;22.30;94.20;;;;;;4167479;28;20749;-77
2022/06/28 10:30:31;;;;;;;3.43;2.30;;;22.40;81.70;;;;;;4171058;28;20798;-77
2022/06/28 10:32:43;;;;;;;3.70;2.50;;;22.40;84.80;;;;;;4172258;28;20258;-77
2022/06/28 10:34:52;;;;;;;3.70;3.00;;;22.40;88.40;;;;;;4151321;28;20294;-77
2022/06/28 10:36:58;;;;;;;6.23;3.00;;;22.40;88.50;;;;;;4164439;28;20219;-77
2022/06/28 10:39:17;;;;;;;3.13;2.60;;;22.30;80.10;;;;;;4169913;28;20227;-77
2022/06/28 10:41:19;;;;;;;3.40;2.40;;;22.40;92.90;;;;;;4171379;28;20208;-77
2022/06/28 10:43:49;;;;;;;2.90;2.40;;;22.50;78.50;;;;;;4163258;28;20658;-77
2022/06/28 10:46:08;;;;;;;4.03;2.23;;;22.50;69.80;;;;;;4129204;28;20232;-77
2022/06/28 10:48:11;;;;;;;2.47;2.07;;;22.50;68.40;;;;;;4160641;28;20227;-78
2022/06/28 10:50:16;;;;;;;2.10;1.90;;;22.60;79.70;;;;;;4162956;28;20296;-77
2022/06/28 10:52:20;;;;;;;2.40;2.20;;;22.70;73.00;;;;;;4149118;28;20216;-77
2022/06/28 10:54:23;;;;;;;2.60;2.17;;;22.70;64.30;;;;;;4165940;28;20382;-77
2022/06/28 10:56:28;;;;;;;3.10;1.90;;;22.70;64.20;;;;;;4166180;28;20283;-77
2022/06/28 10:58:30;;;;;;;3.40;2.10;;;22.90;76.20;;;;;;4152696;28;20206;-77
2022/06/28 11:00:34;;;;;;;2.40;2.00;;;23.00;78.10;;;;;;4169735;28;20262;-77
2022/06/28 11:02:59;;;;;;;1.97;1.80;;;23.10;57.70;;;;;;4171686;28;20678;-77
2022/06/28 11:05:06;;;;;;;2.10;1.90;;;23.20;58.20;;;;;;4168993;28;20212;-77
2022/06/28 11:07:23;;;;;;;2.60;2.10;;;23.20;57.70;;;;;;4169568;28;20225;-75
2022/06/28 11:09:48;;;;;;;2.33;1.93;;;23.30;52.50;;;;;;4155619;28;20257;-77
2022/06/28 11:12:06;;;;;;;2.73;1.73;;;23.40;53.80;;;;;;4175484;28;20678;-77
2022/06/28 11:14:29;;;;;;;3.33;1.70;;;23.40;53.50;;;;;;4163886;28;20252;-77
2022/06/28 11:16:45;;;;;;;3.33;2.00;;;23.50;55.80;;;;;;4161255;28;20228;-77
2022/06/28 11:18:48;;;;;;;2.23;1.70;;;23.60;58.80;;;;;;4161873;28;20205;-75
2022/06/28 11:20:50;;;;;;;3.20;1.90;;;23.70;64.60;;;;;;4149145;28;20209;-75
2022/06/28 11:22:53;;;;;;;2.87;2.17;;;23.80;59.70;;;;;;4171496;28;20292;-78
2022/06/28 11:24:58;;;;;;;4.03;2.03;;;24.00;52.80;;;;;;4167815;28;20548;-75
2022/06/28 11:27:21;;;;;;;2.37;2.07;;;24.20;63.90;;;;;;4163583;28;20238;-75
2022/06/28 11:29:26;;;;;;;2.13;1.80;;;24.30;49.90;;;;;;4154599;28;20285;-75
2022/06/28 11:31:34;;;;;;;1.97;1.70;;;24.50;55.70;;;;;;4175667;28;20206;-78
2022/06/28 11:33:36;;;;;;;2.60;2.03;;;24.70;50.50;;;;;;4171717;28;20209;-75
2022/06/28 11:35:40;;;;;;;2.17;1.60;;;24.80;51.80;;;;;;4171002;28;20194;-76
2022/06/28 11:37:51;;;;;;;2.23;1.80;;;25.00;51.60;;;;;;4171515;28;20306;-76
2022/06/28 11:39:58;;;;;;;1.83;1.70;;;25.20;52.80;;;;;;4178166;28;20668;-76
2022/06/28 11:42:00;;;;;;;2.17;1.60;;;25.40;54.80;;;;;;4170493;28;20215;-76
2022/06/28 11:44:03;;;;;;;2.53;2.10;;;25.70;51.30;;;;;;4164819;28;20253;-76
2022/06/28 11:46:05;;;;;;;2.00;1.80;;;25.80;48.60;;;;;;4149820;28;20234;-76
2022/06/28 11:48:11;;;;;;;3.77;1.50;;;26.00;46.90;;;;;;4168115;28;20227;-75
2022/06/28 11:50:16;;;;;;;2.03;1.67;;;26.20;45.40;;;;;;4174364;28;20215;-76
2022/06/28 11:52:18;;;;;;;2.90;1.70;;;26.40;44.70;;;;;;4172587;28;20203;-75
2022/06/28 11:54:21;;;;;;;1.93;1.60;;;26.50;43.90;;;;;;4171719;28;20202;-75
2022/06/28 11:56:25;;;;;;;1.43;1.33;;;26.80;43.00;;;;;;4170735;28;20257;-75
2022/06/28 11:58:29;;;;;;;2.40;1.63;;;27.00;41.60;;;;;;4172043;28;20198;-76
2022/06/28 12:00:33;;;;;;;2.93;1.80;;;27.30;41.80;;;;;;4170634;28;20261;-76
2022/06/28 12:02:40;;;;;;;2.20;1.70;;;27.60;44.40;;;;;;4173167;28;20213;-76
2022/06/28 12:04:42;;;;;;;2.55;1.60;;;28.00;41.20;;;;;;4165991;28;20268;-75
2022/06/28 12:06:45;;;;;;;2.15;1.55;;;28.40;41.30;;;;;;4174418;28;20260;-75
2022/06/28 12:08:49;;;;;;;1.55;1.35;;;28.70;41.90;;;;;;4160906;28;20221;-76
2022/06/28 12:10:52;;;;;;;2.63;1.20;;;29.10;40.40;;;;;;4166499;28;20207;-76
2022/06/28 12:12:56;;;;;;;1.50;1.20;;;29.50;37.90;;;;;;4167437;28;20257;-76
2022/06/28 12:14:58;;;;;;;1.50;1.23;;;29.90;36.50;;;;;;4170881;28;20207;-76
2022/06/28 12:17:02;;;;;;;1.25;1.15;;;30.20;36.70;;;;;;4168315;28;20688;-76
2022/06/28 12:19:06;;;;;;;2.38;1.23;;;30.60;33.00;;;;;;4173987;28;20252;-76
2022/06/28 12:21:16;;;;;;;2.05;1.20;;;30.90;33.50;;;;;;4173524;28;20223;-76
2022/06/28 12:23:17;;;;;;;1.40;1.20;;;31.10;32.50;;;;;;4172270;28;20198;-76
2022/06/28 12:25:19;;;;;;;1.35;1.02;;;31.40;31.20;;;;;;4172228;28;20380;-76